createdAt,value
2018-11-25T00:02:15.375Z,68.07
2018-11-25T00:04:43.122Z,75.10
2018-11-25T00:07:10.866Z,70.40
2018-11-25T00:09:38.639Z,68.20
2018-11-25T00:12:07.039Z,72.83
2018-11-25T00:14:34.754Z,74.63
2018-11-25T00:17:02.472Z,74.37
2018-11-25T00:19:30.193Z,80.07
2018-11-25T00:21:57.963Z,65.43
2018-11-25T00:24:25.679Z,69.90
2018-11-25T00:26:53.387Z,76.83
2018-11-25T00:29:21.111Z,72.03
2018-11-25T00:31:48.822Z,66.87
2018-11-25T00:34:16.559Z,69.20
2018-11-25T00:36:44.266Z,72.03
2018-11-25T00:39:11.979Z,70.43
2018-11-25T00:41:39.703Z,75.93
2018-11-25T00:44:07.469Z,77.07
2018-11-25T00:46:35.198Z,72.37
2018-11-25T00:49:02.943Z,65.67
2018-11-25T00:51:30.724Z,67.03
2018-11-25T00:53:58.468Z,70.60
2018-11-25T00:56:26.191Z,67.83
2018-11-25T00:58:53.957Z,63.43
2018-11-25T01:01:21.659Z,65.80
2018-11-25T01:03:49.426Z,75.03
2018-11-25T01:06:17.171Z,66.77
2018-11-25T01:08:44.891Z,67.80
2018-11-25T01:11:12.611Z,75.33
2018-11-25T01:13:40.319Z,65.03
2018-11-25T01:16:08.051Z,67.67
2018-11-25T01:18:35.796Z,68.57
2018-11-25T01:21:03.523Z,71.53
2018-11-25T01:23:31.244Z,70.43
2018-11-25T01:25:58.997Z,74.83
2018-11-25T01:28:26.720Z,70.60
2018-11-25T01:30:54.447Z,67.80
2018-11-25T01:33:22.210Z,62.43
2018-11-25T01:35:49.959Z,69.00
2018-11-25T01:38:17.675Z,58.83
2018-11-25T01:40:45.391Z,58.40
2018-11-25T01:43:13.096Z,64.03
2018-11-25T01:45:41.003Z,62.77
2018-11-25T01:48:08.731Z,57.20
2018-11-25T01:50:36.455Z,57.03
2018-11-25T01:53:04.227Z,60.17
2018-11-25T01:55:32.015Z,55.13
2018-11-25T01:57:59.749Z,52.27
2018-11-25T02:00:27.521Z,53.87
2018-11-25T02:02:55.239Z,56.10
2018-11-25T02:05:22.999Z,55.73
2018-11-25T02:07:50.748Z,55.13
2018-11-25T02:10:19.118Z,56.03
2018-11-25T02:12:46.979Z,57.90
2018-11-25T02:15:15.590Z,56.97
2018-11-25T02:17:43.384Z,61.13
2018-11-25T02:20:20.412Z,64.97
2018-11-25T02:22:48.278Z,63.80
2018-11-25T02:25:16.139Z,59.83
2018-11-25T02:27:43.854Z,67.40
2018-11-25T02:30:15.476Z,66.80
2018-11-25T02:32:43.261Z,70.20
2018-11-25T02:35:11.849Z,72.90
2018-11-25T02:37:39.588Z,65.50
2018-11-25T02:40:09.591Z,59.37
2018-11-25T02:42:37.333Z,62.13
2018-11-25T02:45:07.272Z,60.70
2018-11-25T02:47:35.016Z,61.23
2018-11-25T02:50:02.773Z,56.13
2018-11-25T02:52:30.482Z,57.77
2018-11-25T02:54:58.208Z,56.73
2018-11-25T02:57:25.922Z,56.43
2018-11-25T02:59:53.652Z,62.00
2018-11-25T03:02:21.389Z,55.63
2018-11-25T03:04:49.115Z,57.83
2018-11-25T03:07:17.135Z,56.23
2018-11-25T03:09:44.872Z,52.33
2018-11-25T03:12:12.591Z,58.47
2018-11-25T03:14:40.334Z,56.50
2018-11-25T03:17:08.065Z,50.67
2018-11-25T03:19:35.805Z,52.90
2018-11-25T03:22:03.595Z,49.07
2018-11-25T03:24:31.352Z,57.17
2018-11-25T03:26:59.075Z,54.67
2018-11-25T03:29:26.797Z,51.43
2018-11-25T03:31:54.530Z,51.73
2018-11-25T03:34:22.259Z,57.20
2018-11-25T03:36:49.975Z,49.93
2018-11-25T03:39:17.691Z,57.97
2018-11-25T03:41:45.408Z,55.70
2018-11-25T03:44:13.119Z,60.73
2018-11-25T03:46:40.878Z,66.77
2018-11-25T03:49:08.604Z,72.07
2018-11-25T03:51:36.321Z,72.10
2018-11-25T03:54:04.187Z,75.73
2018-11-25T03:56:31.926Z,73.53
2018-11-25T03:58:59.636Z,64.37
2018-11-25T04:01:27.354Z,66.63
2018-11-25T04:03:55.075Z,56.13
2018-11-25T04:06:22.813Z,58.60
2018-11-25T04:08:50.534Z,58.97
2018-11-25T04:11:18.262Z,59.07
2018-11-25T04:13:45.980Z,50.10
2018-11-25T04:16:13.835Z,59.07
2018-11-25T04:18:41.567Z,51.70
2018-11-25T04:21:14.324Z,49.37
2018-11-25T04:23:42.063Z,50.97
2018-11-25T04:26:09.856Z,52.80
2018-11-25T04:28:37.631Z,58.73
2018-11-25T04:31:05.576Z,50.40
2018-11-25T04:33:33.279Z,63.27
2018-11-25T04:36:01.015Z,55.30
2018-11-25T04:38:28.749Z,55.50
2018-11-25T04:40:56.480Z,52.27
2018-11-25T04:43:24.192Z,47.20
2018-11-25T04:45:51.910Z,66.33
2018-11-25T04:48:19.663Z,49.13
2018-11-25T04:50:47.681Z,52.47
2018-11-25T04:53:15.415Z,48.73
2018-11-25T04:55:43.135Z,48.67
2018-11-25T04:58:10.862Z,50.43
2018-11-25T05:00:38.586Z,50.63
2018-11-25T05:03:06.374Z,47.23
2018-11-25T05:05:34.088Z,49.67
2018-11-25T05:08:01.823Z,50.23
2018-11-25T05:10:29.591Z,47.77
2018-11-25T05:12:57.365Z,58.83
2018-11-25T05:15:25.080Z,53.37
2018-11-25T05:17:52.819Z,50.40
2018-11-25T05:20:20.854Z,51.57
2018-11-25T05:22:48.588Z,49.17
2018-11-25T05:25:17.373Z,53.10
2018-11-25T05:27:45.111Z,53.77
2018-11-25T05:30:14.866Z,52.77
2018-11-25T05:32:42.634Z,49.43
2018-11-25T05:35:13.192Z,50.57
2018-11-25T05:37:40.978Z,52.77
2018-11-25T05:40:11.539Z,48.00
2018-11-25T05:42:39.317Z,56.30
2018-11-25T05:45:09.636Z,50.03
2018-11-25T05:47:37.355Z,46.80
2018-11-25T05:50:06.323Z,46.17
2018-11-25T05:52:34.063Z,51.13
2018-11-25T05:55:01.775Z,51.43
2018-11-25T05:57:29.487Z,48.87
2018-11-25T05:59:57.216Z,52.33
2018-11-25T06:02:24.947Z,48.83
2018-11-25T06:04:52.669Z,52.17
2018-11-25T06:07:20.407Z,55.60
2018-11-25T06:09:48.135Z,53.17
2018-11-25T06:12:15.847Z,52.70
2018-11-25T06:14:43.571Z,51.00
2018-11-25T06:17:11.296Z,50.33
2018-11-25T06:19:39.014Z,50.50
2018-11-25T06:22:06.759Z,47.70
2018-11-25T06:24:34.488Z,51.23
2018-11-25T06:27:02.231Z,54.87
2018-11-25T06:29:29.964Z,52.43
2018-11-25T06:31:57.696Z,49.40
2018-11-25T06:34:25.424Z,45.43
2018-11-25T06:36:53.163Z,49.50
2018-11-25T06:39:20.909Z,49.30
2018-11-25T06:41:48.703Z,50.93
2018-11-25T06:44:16.435Z,48.77
2018-11-25T06:46:44.171Z,45.77
2018-11-25T06:49:11.909Z,58.77
2018-11-25T06:51:39.631Z,53.07
2018-11-25T06:54:07.361Z,57.77
2018-11-25T06:56:35.099Z,56.17
2018-11-25T06:59:02.856Z,51.03
2018-11-25T07:01:30.586Z,53.47
2018-11-25T07:03:58.316Z,52.73
2018-11-25T07:06:26.078Z,53.57
2018-11-25T07:08:53.837Z,48.50
2018-11-25T07:11:21.589Z,65.40
2018-11-25T07:13:49.310Z,56.97
2018-11-25T07:16:17.033Z,52.00
2018-11-25T07:18:44.780Z,62.17
2018-11-25T07:21:12.539Z,59.43
2018-11-25T07:23:40.291Z,50.00
2018-11-25T07:26:08.039Z,52.83
2018-11-25T07:28:35.768Z,53.00
2018-11-25T07:31:03.968Z,52.27
2018-11-25T07:33:31.707Z,49.57
2018-11-25T07:35:59.438Z,52.67
2018-11-25T07:38:27.176Z,53.83
2018-11-25T07:40:54.959Z,51.77
2018-11-25T07:43:22.751Z,53.80
2018-11-25T07:45:50.491Z,57.23
2018-11-25T07:48:18.243Z,58.33
2018-11-25T07:50:46.016Z,62.53
2018-11-25T07:53:13.784Z,57.77
2018-11-25T07:55:41.584Z,62.90
2018-11-25T07:58:09.308Z,55.23
2018-11-25T08:00:37.059Z,55.27
2018-11-25T08:03:05.095Z,57.20
2018-11-25T08:05:32.835Z,59.23
2018-11-25T08:08:00.595Z,53.37
2018-11-25T08:10:28.324Z,51.67
2018-11-25T08:12:56.562Z,53.03
2018-11-25T08:15:23.921Z,51.60
2018-11-25T08:17:51.631Z,46.13
2018-11-25T08:20:20.260Z,40.93
2018-11-25T08:22:48.067Z,38.17
2018-11-25T08:25:16.780Z,39.40
2018-11-25T08:27:44.544Z,41.97
2018-11-25T08:30:26.949Z,39.13
2018-11-25T08:32:54.688Z,36.13
2018-11-25T08:35:22.446Z,42.33
2018-11-25T08:37:50.220Z,40.03
2018-11-25T08:40:21.763Z,36.40
2018-11-25T08:42:49.532Z,37.07
2018-11-25T08:45:17.287Z,34.73
2018-11-25T08:47:45.052Z,31.27
2018-11-25T08:50:14.514Z,35.83
2018-11-25T08:52:43.030Z,30.87
2018-11-25T08:55:14.740Z,33.10
2018-11-25T08:57:42.469Z,33.60
2018-11-25T09:00:13.179Z,35.43
2018-11-25T09:02:40.909Z,31.83
2018-11-25T09:05:10.432Z,28.87
2018-11-25T09:07:38.240Z,33.10
2018-11-25T09:10:08.432Z,32.00
2018-11-25T09:12:36.159Z,33.17
2018-11-25T09:15:04.903Z,32.63
2018-11-25T09:17:32.630Z,30.20
2018-11-25T09:20:00.417Z,31.00
2018-11-25T09:22:28.180Z,34.77
2018-11-25T09:24:55.930Z,34.73
2018-11-25T09:27:23.645Z,33.17
2018-11-25T09:29:51.387Z,35.63
2018-11-25T09:32:23.129Z,34.60
2018-11-25T09:34:46.905Z,30.50
2018-11-25T09:37:14.640Z,33.37
2018-11-25T09:39:42.361Z,30.03
2018-11-25T09:42:10.114Z,29.93
2018-11-25T09:44:37.840Z,37.80
2018-11-25T09:47:05.880Z,29.30
2018-11-25T09:49:33.616Z,33.73
2018-11-25T09:52:01.342Z,36.07
2018-11-25T09:54:29.103Z,30.33
2018-11-25T09:56:56.828Z,34.80
2018-11-25T09:59:24.538Z,33.57
2018-11-25T10:01:52.316Z,33.50
2018-11-25T10:04:20.056Z,34.90
2018-11-25T10:06:47.804Z,33.50
2018-11-25T10:09:15.559Z,32.33
2018-11-25T10:11:43.297Z,37.10
2018-11-25T10:14:11.011Z,34.17
2018-11-25T10:16:38.715Z,39.07
2018-11-25T10:19:06.419Z,31.87
2018-11-25T10:21:34.155Z,36.80
2018-11-25T10:24:01.904Z,40.43
2018-11-25T10:26:29.629Z,42.23
2018-11-25T10:28:57.364Z,45.17
2018-11-25T10:31:25.093Z,38.20
2018-11-25T10:33:52.816Z,34.67
2018-11-25T10:36:20.599Z,36.27
2018-11-25T10:38:48.327Z,31.97
2018-11-25T10:41:16.049Z,42.20
2018-11-25T10:43:43.768Z,43.20
2018-11-25T10:46:11.539Z,40.43
2018-11-25T10:48:39.268Z,49.87
2018-11-25T10:51:07.030Z,53.90
2018-11-25T10:53:34.754Z,51.60
2018-11-25T10:56:02.477Z,38.70
2018-11-25T10:58:30.201Z,40.20
2018-11-25T11:01:03.520Z,32.07
2018-11-25T11:03:36.858Z,40.97
2018-11-25T11:06:10.247Z,53.13
2018-11-25T11:08:46.768Z,40.30
2018-11-25T11:11:14.503Z,40.63
2018-11-25T11:13:42.240Z,43.30
2018-11-25T11:16:09.957Z,53.50
2018-11-25T11:18:37.685Z,51.10
2018-11-25T11:21:05.708Z,49.33
2018-11-25T11:23:33.456Z,52.53
2018-11-25T11:26:06.662Z,45.27
2018-11-25T11:28:29.030Z,48.40
2018-11-25T11:30:56.757Z,60.63
2018-11-25T11:33:24.486Z,52.93
2018-11-25T11:35:52.220Z,56.60
2018-11-25T11:38:19.951Z,45.47
2018-11-25T11:40:47.686Z,56.27
2018-11-25T11:43:15.424Z,63.90
2018-11-25T11:45:43.199Z,64.07
2018-11-25T11:48:10.968Z,58.00
2018-11-25T11:50:38.687Z,50.33
2018-11-25T11:53:06.729Z,42.40
2018-11-25T11:55:34.461Z,43.23
2018-11-25T11:58:02.192Z,34.03
2018-11-25T12:00:30.859Z,38.57
2018-11-25T12:02:58.889Z,39.83
2018-11-25T12:05:26.615Z,38.70
2018-11-25T12:07:54.347Z,37.30
2018-11-25T12:10:22.077Z,38.70
2018-11-25T12:12:49.839Z,39.83
2018-11-25T12:15:32.136Z,37.30
2018-11-25T12:17:59.879Z,37.50
2018-11-25T12:20:28.760Z,41.60
2018-11-25T12:22:57.025Z,35.23
2018-11-25T12:25:24.779Z,35.73
2018-11-25T12:27:52.534Z,36.23
2018-11-25T12:30:20.292Z,32.63
2018-11-25T12:32:49.160Z,33.13
2018-11-25T12:35:17.376Z,30.00
2018-11-25T12:37:45.165Z,33.10
2018-11-25T12:40:18.019Z,39.33
2018-11-25T12:42:47.760Z,35.90
2018-11-25T12:45:16.468Z,34.37
2018-11-25T12:47:44.201Z,40.30
2018-11-25T12:50:14.024Z,37.63
2018-11-25T12:52:41.788Z,50.20
2018-11-25T12:55:11.883Z,45.23
2018-11-25T12:57:39.635Z,37.07
2018-11-25T13:00:12.895Z,32.70
2018-11-25T13:02:40.665Z,35.07
2018-11-25T13:05:08.459Z,35.30
2018-11-25T13:07:36.193Z,33.40
2018-11-25T13:10:04.126Z,33.67
2018-11-25T13:12:31.853Z,32.00
2018-11-25T13:14:59.664Z,36.40
2018-11-25T13:17:27.428Z,32.77
2018-11-25T13:19:55.175Z,33.30
2018-11-25T13:22:22.951Z,32.67
2018-11-25T13:24:50.695Z,35.30
2018-11-25T13:27:18.435Z,30.40
2018-11-25T13:29:46.165Z,32.30
2018-11-25T13:32:13.908Z,29.73
2018-11-25T13:34:41.682Z,36.20
2018-11-25T13:37:09.431Z,38.67
2018-11-25T13:39:37.144Z,30.13
2018-11-25T13:42:05.110Z,37.80
2018-11-25T13:44:41.675Z,38.80
2018-11-25T13:47:10.248Z,34.67
2018-11-25T13:49:38.000Z,37.17
2018-11-25T13:52:06.508Z,28.50
2018-11-25T13:54:34.464Z,27.43
2018-11-25T13:57:02.235Z,31.50
2018-11-25T13:59:29.959Z,35.87
2018-11-25T14:01:57.700Z,48.20
2018-11-25T14:04:25.440Z,40.63
2018-11-25T14:06:53.195Z,44.00
2018-11-25T14:09:21.555Z,46.97
2018-11-25T14:11:49.268Z,52.87
2018-11-25T14:14:17.000Z,66.03
2018-11-25T14:16:44.730Z,76.27
2018-11-25T14:19:12.455Z,84.37
2018-11-25T14:21:43.222Z,76.57
2018-11-25T14:24:10.936Z,88.30
2018-11-25T14:26:44.244Z,80.80
2018-11-25T14:29:11.973Z,67.17
2018-11-25T14:31:39.695Z,64.20
2018-11-25T14:34:07.423Z,82.60
2018-11-25T14:36:35.168Z,69.57
2018-11-25T14:39:03.140Z,71.60
2018-11-25T14:41:30.945Z,78.10
2018-11-25T14:43:58.679Z,77.57
2018-11-25T14:46:26.412Z,83.93
2018-11-25T14:48:54.147Z,79.13
2018-11-25T14:51:21.867Z,78.57
2018-11-25T14:53:49.585Z,78.17
2018-11-25T14:56:17.368Z,69.80
2018-11-25T14:58:45.106Z,66.50
2018-11-25T15:01:12.845Z,59.37
2018-11-25T15:03:40.583Z,68.90
2018-11-25T15:06:08.347Z,56.70
2018-11-25T15:08:36.091Z,57.83
2018-11-25T15:11:03.892Z,58.40
2018-11-25T15:13:31.720Z,67.17
2018-11-25T15:16:00.672Z,69.50
2018-11-25T15:18:28.406Z,86.83
2018-11-25T15:20:56.214Z,98.67
2018-11-25T15:23:23.923Z,110.50
2018-11-25T15:25:53.397Z,123.83
2018-11-25T15:28:21.132Z,128.73
2018-11-25T15:30:48.856Z,123.73
2018-11-25T15:33:16.626Z,140.07
2018-11-25T15:35:44.379Z,155.83
2018-11-25T15:38:12.141Z,161.17
2018-11-25T15:40:40.385Z,159.87
2018-11-25T15:43:09.168Z,160.10
2018-11-25T15:45:36.955Z,166.70
2018-11-25T15:48:22.895Z,171.50
2018-11-25T15:50:50.731Z,155.70
2018-11-25T15:53:18.508Z,163.90
2018-11-25T15:55:47.758Z,144.87
2018-11-25T15:58:15.519Z,139.43
2018-11-25T16:00:43.272Z,139.83
2018-11-25T16:03:11.740Z,134.90
2018-11-25T16:05:41.367Z,134.37
2018-11-25T16:08:09.090Z,142.93
2018-11-25T16:10:36.832Z,136.53
2018-11-25T16:13:05.057Z,135.13
2018-11-25T16:15:32.870Z,133.70
2018-11-25T16:18:00.610Z,132.23
2018-11-25T16:20:28.460Z,133.60
2018-11-25T16:23:01.494Z,134.90
2018-11-25T16:25:31.958Z,134.80
2018-11-25T16:28:13.278Z,133.53
2018-11-25T16:30:41.032Z,135.53
2018-11-25T16:33:08.761Z,137.27
2018-11-25T16:35:36.747Z,133.93
2018-11-25T16:38:06.516Z,150.47
2018-11-25T16:40:34.267Z,146.93
2018-11-25T16:43:02.037Z,151.57
2018-11-25T16:45:29.770Z,159.17
2018-11-25T16:47:57.500Z,160.40
2018-11-25T16:50:25.551Z,170.60
2018-11-25T16:52:53.049Z,170.07
2018-11-25T16:55:20.795Z,202.47
2018-11-25T16:57:48.494Z,214.50
2018-11-25T17:00:17.524Z,187.90
2018-11-25T17:02:45.303Z,273.37
2018-11-25T17:05:14.688Z,272.40
2018-11-25T17:07:43.655Z,266.23
2018-11-25T17:10:11.477Z,269.80
2018-11-25T17:12:39.225Z,270.43
2018-11-25T17:15:12.928Z,276.70
2018-11-25T17:17:40.703Z,244.10
2018-11-25T17:20:09.044Z,257.53
2018-11-25T17:22:36.802Z,219.93
2018-11-25T17:25:06.435Z,234.30
2018-11-25T17:27:34.253Z,234.07
2018-11-25T17:30:01.996Z,205.40
2018-11-25T17:32:30.696Z,195.63
2018-11-25T17:34:58.419Z,179.13
2018-11-25T17:37:26.180Z,197.10
2018-11-25T17:39:53.894Z,205.30
2018-11-25T17:42:21.627Z,220.70
2018-11-25T17:44:49.367Z,242.23
2018-11-25T17:47:17.091Z,259.80
2018-11-25T17:49:44.827Z,236.73
2018-11-25T17:52:12.626Z,220.27
2018-11-25T17:54:40.436Z,206.30
2018-11-25T17:57:08.947Z,206.80
2018-11-25T17:59:37.704Z,175.87
2018-11-25T18:02:06.047Z,195.37
2018-11-25T18:04:33.791Z,203.90
2018-11-25T18:07:01.543Z,214.80
2018-11-25T18:09:35.996Z,203.20
2018-11-25T18:12:04.320Z,170.10
2018-11-25T18:14:32.088Z,151.67
2018-11-25T18:16:59.819Z,146.17
2018-11-25T18:19:27.608Z,128.37
2018-11-25T18:22:00.821Z,122.83
2018-11-25T18:24:28.555Z,129.10
2018-11-25T18:26:56.339Z,125.40
2018-11-25T18:29:24.076Z,128.17
2018-11-25T18:31:51.813Z,120.97
2018-11-25T18:34:19.544Z,123.03
2018-11-25T18:36:47.260Z,117.20
2018-11-25T18:39:15.010Z,82.70
2018-11-25T18:41:44.096Z,81.27
2018-11-25T18:44:12.091Z,79.00
2018-11-25T18:46:46.528Z,69.90
2018-11-25T18:49:09.287Z,71.03
2018-11-25T18:51:37.024Z,64.53
2018-11-25T18:54:05.911Z,66.33
2018-11-25T18:56:33.648Z,68.87
2018-11-25T18:59:01.447Z,61.67
2018-11-25T19:01:36.423Z,61.37
2018-11-25T19:04:04.169Z,60.67
2018-11-25T19:06:31.908Z,60.33
2018-11-25T19:08:59.627Z,54.87
2018-11-25T19:11:27.360Z,57.17
2018-11-25T19:13:55.095Z,65.97
2018-11-25T19:16:22.906Z,58.57
2018-11-25T19:18:50.623Z,61.77
2018-11-25T19:21:18.356Z,63.97
2018-11-25T19:23:46.195Z,59.80
2018-11-25T19:26:13.953Z,61.20
2018-11-25T19:28:41.701Z,54.97
2018-11-25T19:31:09.471Z,63.07
2018-11-25T19:33:37.244Z,65.97
2018-11-25T19:36:05.377Z,63.93
2018-11-25T19:38:33.095Z,62.47
2018-11-25T19:41:00.827Z,65.73
2018-11-25T19:43:28.559Z,67.93
2018-11-25T19:45:56.292Z,68.77
2018-11-25T19:48:24.604Z,64.53
2018-11-25T19:50:52.323Z,66.87
2018-11-25T19:53:20.046Z,71.73
2018-11-25T19:55:47.784Z,69.97
2018-11-25T19:58:15.519Z,76.67
2018-11-25T20:00:43.800Z,79.37
2018-11-25T20:03:11.532Z,77.53
2018-11-25T20:05:40.064Z,82.33
2018-11-25T20:08:08.111Z,80.20
2018-11-25T20:10:35.883Z,75.07
2018-11-25T20:13:03.659Z,76.10
2018-11-25T20:15:31.398Z,84.63
2018-11-25T20:17:59.137Z,73.30
2018-11-25T20:20:27.214Z,80.50
2018-11-25T20:22:55.489Z,75.97
2018-11-25T20:25:23.244Z,78.47
2018-11-25T20:27:52.800Z,80.17
2018-11-25T20:30:21.868Z,79.13
2018-11-25T20:32:55.205Z,76.70
2018-11-25T20:35:22.969Z,74.80
2018-11-25T20:37:56.148Z,79.77
2018-11-25T20:40:23.935Z,79.70
2018-11-25T20:42:51.774Z,80.50
2018-11-25T20:45:25.780Z,87.93
2018-11-25T20:47:54.073Z,88.13
2018-11-25T20:50:21.871Z,90.13
2018-11-25T20:52:55.203Z,91.93
2018-11-25T20:55:22.931Z,90.87
2018-11-25T20:57:50.674Z,88.17
2018-11-25T21:00:20.653Z,88.07
2018-11-25T21:02:48.392Z,87.80
2018-11-25T21:05:16.235Z,85.83
2018-11-25T21:07:44.048Z,93.67
2018-11-25T21:10:15.095Z,86.50
2018-11-25T21:12:44.052Z,84.90
2018-11-25T21:15:11.800Z,75.97
2018-11-25T21:17:39.771Z,82.57
2018-11-25T21:20:24.551Z,86.37
2018-11-25T21:22:52.319Z,84.33
2018-11-25T21:25:21.283Z,82.00
2018-11-25T21:27:49.083Z,83.30
2018-11-25T21:30:20.710Z,88.93
2018-11-25T21:32:49.536Z,81.83
2018-11-25T21:35:17.264Z,84.57
2018-11-25T21:37:45.022Z,81.57
2018-11-25T21:40:15.752Z,87.33
2018-11-25T21:42:43.473Z,83.13
2018-11-25T21:45:13.214Z,84.40
2018-11-25T21:47:41.030Z,96.00
2018-11-25T21:50:10.158Z,92.83
2018-11-25T21:52:37.868Z,98.77
2018-11-25T21:55:07.276Z,97.10
2018-11-25T21:57:35.003Z,104.27
2018-11-25T22:00:02.776Z,96.20
2018-11-25T22:02:30.515Z,97.87
2018-11-25T22:04:58.238Z,97.13
2018-11-25T22:07:26.047Z,91.77
2018-11-25T22:09:53.789Z,86.97
2018-11-25T22:12:21.524Z,87.73
2018-11-25T22:14:49.223Z,87.67
2018-11-25T22:17:16.948Z,80.70
2018-11-25T22:19:44.660Z,92.17
2018-11-25T22:22:12.375Z,86.00
2018-11-25T22:24:40.088Z,91.73
2018-11-25T22:27:07.824Z,91.80
2018-11-25T22:29:35.542Z,94.40
2018-11-25T22:32:03.296Z,88.47
2018-11-25T22:34:31.019Z,89.23
2018-11-25T22:36:58.736Z,88.90
2018-11-25T22:39:26.451Z,85.47
2018-11-25T22:41:54.168Z,84.07
2018-11-25T22:44:21.900Z,75.10
2018-11-25T22:46:49.635Z,79.03
2018-11-25T22:49:17.367Z,84.30
2018-11-25T22:51:45.127Z,81.60
2018-11-25T22:54:12.882Z,79.77
2018-11-25T22:56:40.613Z,77.60
2018-11-25T22:59:08.339Z,75.83
2018-11-25T23:01:36.119Z,77.33
2018-11-25T23:05:15.540Z,78.60
2018-11-25T23:07:43.283Z,85.30
2018-11-25T23:10:11.029Z,80.57
2018-11-25T23:12:38.778Z,87.63
2018-11-25T23:15:06.634Z,88.80
2018-11-25T23:17:34.347Z,77.67
2018-11-25T23:20:02.072Z,82.83
2018-11-25T23:22:29.794Z,80.07
2018-11-25T23:24:57.518Z,81.00
2018-11-25T23:27:25.252Z,79.63
2018-11-25T23:29:52.976Z,81.97
2018-11-25T23:32:20.672Z,88.87
2018-11-25T23:34:48.383Z,82.17
2018-11-25T23:37:16.120Z,83.33
2018-11-25T23:39:43.880Z,83.10
2018-11-25T23:42:11.661Z,87.07
2018-11-25T23:44:39.415Z,85.30
2018-11-25T23:47:07.178Z,89.37
2018-11-25T23:49:34.911Z,90.00
2018-11-25T23:52:02.669Z,94.63
2018-11-25T23:54:30.399Z,80.57
2018-11-25T23:56:59.403Z,87.17
2018-11-25T23:59:25.980Z,88.70
